createdAt,value
2022-11-06T00:01:47.697Z,97293.00
2022-11-06T00:04:14.478Z,97293.00
2022-11-06T00:06:50.177Z,97287.00
2022-11-06T00:09:22.131Z,97291.00
2022-11-06T00:11:50.826Z,97287.00
2022-11-06T00:14:18.341Z,97295.00
2022-11-06T00:16:47.346Z,97293.00
2022-11-06T00:19:15.432Z,97293.00
2022-11-06T00:21:42.491Z,97302.00
2022-11-06T00:24:12.044Z,97297.00
2022-11-06T00:26:38.837Z,97294.00
2022-11-06T00:29:07.098Z,97300.00
2022-11-06T00:31:37.040Z,97299.00
2022-11-06T00:34:07.469Z,97290.00
2022-11-06T00:36:34.964Z,97294.00
2022-11-06T00:39:02.208Z,97292.00
2022-11-06T00:41:29.331Z,97306.00
2022-11-06T00:43:59.151Z,97296.00
2022-11-06T00:46:26.722Z,97304.00
2022-11-06T00:48:54.730Z,97304.00
2022-11-06T00:51:31.944Z,97290.00
2022-11-06T00:54:05.904Z,97292.00
2022-11-06T00:56:33.939Z,97298.00
2022-11-06T00:59:04.147Z,97296.00
2022-11-06T01:01:41.464Z,97292.00
2022-11-06T01:04:18.478Z,97279.00
2022-11-06T01:06:49.053Z,97277.00
2022-11-06T01:09:20.266Z,97276.00
2022-11-06T01:12:12.197Z,97272.00
2022-11-06T01:14:40.351Z,97283.00
2022-11-06T01:17:07.252Z,97289.00
2022-11-06T01:19:33.959Z,97291.00
2022-11-06T01:22:00.737Z,97282.00
2022-11-06T01:24:29.185Z,97292.00
2022-11-06T01:29:44.185Z,97285.00
2022-11-06T01:32:11.005Z,97283.00
2022-11-06T01:34:37.814Z,97286.00
2022-11-06T01:37:05.071Z,97279.00
2022-11-06T01:39:31.972Z,97281.00
2022-11-06T01:41:59.069Z,97284.00
2022-11-06T01:44:41.120Z,97284.00
2022-11-06T01:47:27.299Z,97292.00
2022-11-06T01:49:59.516Z,97296.00
2022-11-06T01:52:28.423Z,97297.00
2022-11-06T01:55:16.335Z,97282.00
2022-11-06T01:57:43.652Z,97284.00
2022-11-06T02:00:11.386Z,97276.00
2022-11-06T02:02:39.279Z,97281.00
2022-11-06T02:05:06.492Z,97272.00
2022-11-06T02:07:34.034Z,97269.00
2022-11-06T02:10:00.780Z,97263.00
2022-11-06T02:13:40.866Z,97256.00
2022-11-06T02:16:31.863Z,97257.00
2022-11-06T02:19:36.165Z,97248.00
2022-11-06T02:22:33.399Z,97243.00
2022-11-06T02:25:23.494Z,97234.00
2022-11-06T02:28:04.880Z,97220.00
2022-11-06T02:30:36.890Z,97210.00
2022-11-06T02:33:11.918Z,97211.00
2022-11-06T02:35:56.333Z,97213.00
2022-11-06T02:38:28.705Z,97217.00
2022-11-06T02:41:04.433Z,97219.00
2022-11-06T02:43:43.222Z,97212.00
2022-11-06T02:51:15.484Z,97197.00
2022-11-06T02:57:59.782Z,97180.00
2022-11-06T03:05:39.422Z,97155.00
2022-11-06T03:09:34.234Z,97167.00
2022-11-06T03:12:59.212Z,97167.00
2022-11-06T03:19:56.639Z,97154.00
2022-11-06T03:26:25.523Z,97147.00
2022-11-06T03:29:25.867Z,97141.00
2022-11-06T03:32:29.422Z,97144.00
2022-11-06T03:35:55.395Z,97142.00
2022-11-06T03:38:56.810Z,97128.00
2022-11-06T03:42:17.884Z,97126.00
2022-11-06T03:45:04.125Z,97117.00
2022-11-06T03:48:26.027Z,97119.00
2022-11-06T03:51:10.627Z,97112.00
2022-11-06T03:54:26.350Z,97114.00
2022-11-06T03:57:11.879Z,97106.00
2022-11-06T03:59:48.274Z,97107.00
2022-11-06T04:02:17.968Z,97103.00
2022-11-06T04:04:50.491Z,97102.00
2022-11-06T04:07:23.224Z,97105.00
2022-11-06T04:10:14.308Z,97116.00
2022-11-06T04:13:01.586Z,97127.00
2022-11-06T04:15:34.773Z,97116.00
2022-11-06T04:18:01.511Z,97119.00
2022-11-06T04:20:59.639Z,97128.00
2022-11-06T04:24:19.081Z,97124.00
2022-11-06T04:27:02.629Z,97135.00
2022-11-06T04:29:59.763Z,97132.00
2022-11-06T04:32:32.282Z,97133.00
2022-11-06T04:35:15.550Z,97130.00
2022-11-06T04:38:00.262Z,97124.00
2022-11-06T04:40:32.146Z,97131.00
2022-11-06T04:43:37.454Z,97131.00
2022-11-06T04:46:06.612Z,97133.00
2022-11-06T04:48:33.992Z,97125.00
2022-11-06T04:51:06.334Z,97123.00
2022-11-06T04:53:34.298Z,97119.00
2022-11-06T04:56:16.432Z,97122.00
2022-11-06T04:58:45.550Z,97116.00
2022-11-06T05:01:12.312Z,97114.00
2022-11-06T05:03:39.091Z,97103.00
2022-11-06T05:06:06.190Z,97100.00
2022-11-06T05:08:32.929Z,97107.00
2022-11-06T05:10:59.652Z,97100.00
2022-11-06T05:13:26.388Z,97101.00
2022-11-06T05:15:57.708Z,97099.00
2022-11-06T05:18:26.536Z,97095.00
2022-11-06T05:21:11.903Z,97085.00
2022-11-06T05:23:38.660Z,97083.00
2022-11-06T05:26:06.609Z,97080.00
2022-11-06T05:28:34.180Z,97068.00
2022-11-06T05:31:00.909Z,97073.00
2022-11-06T05:33:27.680Z,97055.00
2022-11-06T05:35:54.498Z,97059.00
2022-11-06T05:38:21.339Z,97061.00
2022-11-06T05:40:48.074Z,97055.00
2022-11-06T05:43:14.821Z,97060.00
2022-11-06T05:45:41.750Z,97059.00
2022-11-06T05:48:08.481Z,97064.00
2022-11-06T05:50:35.223Z,97058.00
2022-11-06T05:53:01.961Z,97060.00
2022-11-06T05:55:28.672Z,97062.00
2022-11-06T05:57:55.429Z,97055.00
2022-11-06T06:00:22.325Z,97048.00
2022-11-06T06:02:49.198Z,97047.00
2022-11-06T06:05:16.045Z,97047.00
2022-11-06T06:07:43.086Z,97045.00
2022-11-06T06:10:10.330Z,97032.00
2022-11-06T06:12:39.184Z,97018.00
2022-11-06T06:15:07.771Z,97017.00
2022-11-06T06:17:35.061Z,97008.00
2022-11-06T06:20:01.840Z,96993.00
2022-11-06T06:22:28.650Z,96985.00
2022-11-06T06:24:55.455Z,96981.00
2022-11-06T06:27:22.290Z,96969.00
2022-11-06T06:29:49.007Z,96958.00
2022-11-06T06:32:15.875Z,96967.00
2022-11-06T06:34:42.601Z,96949.00
2022-11-06T06:37:09.444Z,96946.00
2022-11-06T06:39:36.273Z,96925.00
2022-11-06T06:42:03.220Z,96931.00
2022-11-06T06:44:29.936Z,96920.00
2022-11-06T06:46:56.677Z,96919.00
2022-11-06T06:49:23.489Z,96908.00
2022-11-06T06:51:50.755Z,96909.00
2022-11-06T06:54:17.588Z,96909.00
2022-11-06T06:56:44.365Z,96902.00
2022-11-06T06:59:11.175Z,96896.00
2022-11-06T07:01:38.069Z,96887.00
2022-11-06T07:04:05.277Z,96897.00
2022-11-06T07:06:32.154Z,96888.00
2022-11-06T07:08:58.945Z,96879.00
2022-11-06T07:11:25.789Z,96871.00
2022-11-06T07:13:52.537Z,96867.00
2022-11-06T07:16:21.181Z,96854.00
2022-11-06T07:18:47.938Z,96862.00
2022-11-06T07:21:14.761Z,96862.00
2022-11-06T07:23:41.587Z,96863.00
2022-11-06T07:26:08.765Z,96867.00
2022-11-06T07:28:35.837Z,96865.00
2022-11-06T07:31:05.628Z,96877.00
2022-11-06T07:33:32.557Z,96889.00
2022-11-06T07:36:11.413Z,96889.00
2022-11-06T07:38:40.310Z,96911.00
2022-11-06T07:41:11.674Z,96923.00
2022-11-06T07:43:38.609Z,96929.00
2022-11-06T07:46:09.185Z,96930.00
2022-11-06T07:48:36.036Z,96934.00
2022-11-06T07:51:05.774Z,96938.00
2022-11-06T07:53:33.104Z,96942.00
2022-11-06T07:56:00.080Z,96961.00
2022-11-06T07:58:27.219Z,96973.00
2022-11-06T08:00:57.051Z,96981.00
2022-11-06T08:03:25.668Z,96990.00
2022-11-06T08:05:52.403Z,97003.00
2022-11-06T08:08:19.218Z,97002.00
2022-11-06T08:10:47.577Z,97003.00
2022-11-06T08:13:17.249Z,97000.00
2022-11-06T08:15:44.830Z,97004.00
2022-11-06T08:18:12.548Z,97001.00
2022-11-06T08:20:40.883Z,97007.00
2022-11-06T08:23:10.888Z,97015.00
2022-11-06T08:25:38.067Z,97022.00
2022-11-06T08:28:05.028Z,97025.00
2022-11-06T08:30:32.323Z,97021.00
2022-11-06T08:33:05.681Z,97026.00
2022-11-06T08:35:34.351Z,97026.00
2022-11-06T08:38:01.096Z,97023.00
2022-11-06T08:40:30.885Z,97020.00
2022-11-06T08:43:03.693Z,97010.00
2022-11-06T08:45:36.635Z,97002.00
2022-11-06T08:48:04.633Z,96991.00
2022-11-06T08:50:32.812Z,96980.00
2022-11-06T08:53:04.402Z,96963.00
2022-11-06T08:55:35.677Z,96947.00
2022-11-06T08:58:03.210Z,96932.00
2022-11-06T09:00:30.412Z,96931.00
2022-11-06T09:03:10.902Z,96924.00
2022-11-06T09:05:41.797Z,96918.00
2022-11-06T09:08:09.482Z,96916.00
2022-11-06T09:10:38.894Z,96897.00
2022-11-06T09:13:06.297Z,96879.00
2022-11-06T09:15:33.473Z,96861.00
2022-11-06T09:18:00.251Z,96858.00
2022-11-06T09:20:27.374Z,96850.00
2022-11-06T09:22:54.664Z,96837.00
2022-11-06T09:25:21.905Z,96818.00
2022-11-06T09:27:58.823Z,96809.00
2022-11-06T09:30:28.810Z,96794.00
2022-11-06T09:32:59.667Z,96780.00
2022-11-06T09:35:28.907Z,96785.00
2022-11-06T09:38:06.862Z,96770.00
2022-11-06T09:40:39.710Z,96767.00
2022-11-06T09:44:04.205Z,96743.00
2022-11-06T09:46:38.708Z,96750.00
2022-11-06T09:49:29.084Z,96762.00
2022-11-06T09:52:03.727Z,96758.00
2022-11-06T09:54:44.737Z,96770.00
2022-11-06T09:57:19.590Z,96763.00
2022-11-06T09:59:48.088Z,96770.00
2022-11-06T10:02:34.188Z,96769.00
2022-11-06T10:05:25.832Z,96763.00
2022-11-06T10:07:55.408Z,96764.00
2022-11-06T10:10:41.595Z,96763.00
2022-11-06T10:13:44.561Z,96757.00
2022-11-06T10:16:41.903Z,96759.00
2022-11-06T10:20:01.294Z,96748.00
2022-11-06T10:22:41.673Z,96753.00
2022-11-06T10:25:22.981Z,96757.00
2022-11-06T10:28:04.335Z,96756.00
2022-11-06T10:31:00.186Z,96760.00
2022-11-06T10:33:59.228Z,96753.00
2022-11-06T10:36:38.322Z,96739.00
2022-11-06T10:39:15.749Z,96730.00
2022-11-06T10:41:49.458Z,96733.00
2022-11-06T10:44:31.894Z,96713.00
2022-11-06T10:47:11.727Z,96721.00
2022-11-06T10:49:45.940Z,96718.00
2022-11-06T10:52:15.635Z,96710.00
2022-11-06T10:55:39.578Z,96711.00
2022-11-06T10:58:18.806Z,96710.00
2022-11-06T11:00:46.046Z,96704.00
2022-11-06T11:03:28.045Z,96697.00
2022-11-06T11:05:55.656Z,96693.00
2022-11-06T11:08:46.922Z,96693.00
2022-11-06T11:11:13.563Z,96683.00
2022-11-06T11:14:11.678Z,96678.00
2022-11-06T11:16:41.377Z,96676.00
2022-11-06T11:19:35.453Z,96672.00
2022-11-06T11:22:05.272Z,96674.00
2022-11-06T11:24:32.258Z,96666.00
2022-11-06T11:27:07.019Z,96668.00
2022-11-06T11:29:48.001Z,96650.00
2022-11-06T11:32:17.983Z,96653.00
2022-11-06T11:34:56.469Z,96656.00
2022-11-06T11:37:33.922Z,96648.00
2022-11-06T11:40:21.899Z,96650.00
2022-11-06T11:42:48.993Z,96644.00
2022-11-06T11:45:21.506Z,96645.00
2022-11-06T11:47:51.699Z,96640.00
2022-11-06T11:50:23.843Z,96653.00
2022-11-06T11:52:59.534Z,96643.00
2022-11-06T11:55:29.349Z,96641.00
2022-11-06T11:58:00.301Z,96634.00
2022-11-06T12:00:28.917Z,96635.00
2022-11-06T12:02:57.250Z,96634.00
2022-11-06T12:05:34.016Z,96627.00
2022-11-06T12:08:01.468Z,96626.00
2022-11-06T12:10:36.501Z,96626.00
2022-11-06T12:13:23.646Z,96620.00
2022-11-06T12:16:10.827Z,96621.00
2022-11-06T12:18:44.215Z,96613.00
2022-11-06T12:21:37.104Z,96616.00
2022-11-06T12:24:43.848Z,96612.00
2022-11-06T12:27:23.527Z,96610.00
2022-11-06T12:30:05.752Z,96628.00
2022-11-06T12:32:54.084Z,96621.00
2022-11-06T12:36:02.539Z,96624.00
2022-11-06T12:39:05.007Z,96627.00
2022-11-06T12:41:39.438Z,96621.00
2022-11-06T12:44:12.003Z,96616.00
2022-11-06T12:46:56.137Z,96619.00
2022-11-06T12:49:31.861Z,96631.00
2022-11-06T12:52:23.328Z,96619.00
2022-11-06T12:55:07.857Z,96611.00
2022-11-06T12:58:04.744Z,96611.00
2022-11-06T13:00:42.576Z,96609.00
2022-11-06T13:03:46.681Z,96609.00
2022-11-06T13:06:26.752Z,96592.00
2022-11-06T13:09:26.598Z,96592.00
2022-11-06T13:12:18.275Z,96596.00
2022-11-06T13:15:16.695Z,96583.00
2022-11-06T13:17:55.648Z,96575.00
2022-11-06T13:20:57.192Z,96568.00
2022-11-06T13:23:33.133Z,96570.00
2022-11-06T13:26:17.768Z,96559.00
2022-11-06T13:28:56.080Z,96556.00
2022-11-06T13:31:49.793Z,96561.00
2022-11-06T13:34:24.826Z,96571.00
2022-11-06T13:36:51.760Z,96576.00
2022-11-06T13:39:29.836Z,96570.00
2022-11-06T13:41:57.549Z,96572.00
2022-11-06T13:44:25.201Z,96572.00
2022-11-06T13:47:09.838Z,96560.00
2022-11-06T13:50:07.166Z,96546.00
2022-11-06T13:53:06.235Z,96560.00
2022-11-06T13:56:21.545Z,96553.00
2022-11-06T13:59:37.837Z,96568.00
2022-11-06T14:02:50.206Z,96568.00
2022-11-06T14:05:43.772Z,96570.00
2022-11-06T14:08:30.132Z,96564.00
2022-11-06T14:11:12.474Z,96562.00
2022-11-06T14:13:40.402Z,96553.00
2022-11-06T14:16:22.448Z,96555.00
2022-11-06T14:18:58.131Z,96554.00
2022-11-06T14:21:43.988Z,96558.00
2022-11-06T14:24:41.440Z,96554.00
2022-11-06T14:27:31.233Z,96561.00
2022-11-06T14:30:16.267Z,96577.00
2022-11-06T14:32:47.004Z,96574.00
2022-11-06T14:35:28.858Z,96575.00
2022-11-06T14:38:31.710Z,96575.00
2022-11-06T14:40:59.618Z,96572.00
2022-11-06T14:43:36.389Z,96568.00
2022-11-06T14:46:18.029Z,96562.00
2022-11-06T14:48:51.341Z,96574.00
2022-11-06T14:51:27.050Z,96567.00
2022-11-06T14:53:59.293Z,96562.00
2022-11-06T14:56:31.958Z,96554.00
2022-11-06T14:59:55.191Z,96570.00
2022-11-06T15:02:40.965Z,96557.00
2022-11-06T15:05:22.513Z,96552.00
2022-11-06T15:08:05.224Z,96546.00
2022-11-06T15:10:50.258Z,96548.00
2022-11-06T15:13:17.441Z,96539.00
2022-11-06T15:15:52.497Z,96532.00
2022-11-06T15:18:35.967Z,96522.00
2022-11-06T15:21:47.800Z,96525.00
2022-11-06T15:24:54.347Z,96527.00
2022-11-06T15:28:00.354Z,96526.00
2022-11-06T15:31:56.020Z,96515.00
2022-11-06T15:34:34.780Z,96521.00
2022-11-06T15:37:24.232Z,96512.00
2022-11-06T15:40:00.657Z,96519.00
2022-11-06T15:42:31.715Z,96514.00
2022-11-06T15:45:19.687Z,96512.00
2022-11-06T15:48:05.632Z,96521.00
2022-11-06T15:50:35.429Z,96516.00
2022-11-06T15:53:14.856Z,96517.00
2022-11-06T15:55:53.076Z,96512.00
2022-11-06T15:58:19.786Z,96512.00
2022-11-06T16:00:47.310Z,96511.00
2022-11-06T16:03:21.208Z,96512.00
2022-11-06T16:05:49.040Z,96504.00
2022-11-06T16:08:18.794Z,96512.00
2022-11-06T16:10:49.805Z,96506.00
2022-11-06T16:13:20.310Z,96518.00
2022-11-06T16:15:52.946Z,96510.00
2022-11-06T16:18:31.673Z,96520.00
2022-11-06T16:21:20.052Z,96518.00
2022-11-06T16:23:53.764Z,96533.00
2022-11-06T16:26:32.649Z,96535.00
2022-11-06T16:29:00.577Z,96542.00
2022-11-06T16:31:30.067Z,96526.00
2022-11-06T16:34:22.122Z,96564.00
2022-11-06T16:37:01.226Z,96565.00
2022-11-06T16:39:47.685Z,96571.00
2022-11-06T16:42:22.324Z,96561.00
2022-11-06T16:44:51.915Z,96560.00
2022-11-06T16:47:23.084Z,96551.00
2022-11-06T16:49:54.309Z,96546.00
2022-11-06T16:52:32.503Z,96551.00
2022-11-06T16:55:06.022Z,96563.00
2022-11-06T16:57:43.442Z,96554.00
2022-11-06T17:00:30.979Z,96579.00
2022-11-06T17:03:22.475Z,96584.00
2022-11-06T17:05:57.858Z,96586.00
2022-11-06T17:08:37.364Z,96591.00
2022-11-06T17:11:13.053Z,96613.00
2022-11-06T17:13:46.552Z,96627.00
2022-11-06T17:16:21.406Z,96630.00
2022-11-06T17:18:48.663Z,96638.00
2022-11-06T17:21:18.892Z,96641.00
2022-11-06T17:23:47.229Z,96647.00
2022-11-06T17:26:29.885Z,96641.00
2022-11-06T17:28:58.530Z,96644.00
2022-11-06T17:31:26.607Z,96646.00
2022-11-06T17:33:53.784Z,96658.00
2022-11-06T17:36:26.470Z,96666.00
2022-11-06T17:38:55.357Z,96653.00
2022-11-06T17:41:29.795Z,96648.00
2022-11-06T17:43:59.531Z,96651.00
2022-11-06T17:46:29.261Z,96663.00
2022-11-06T17:48:57.000Z,96675.00
2022-11-06T17:51:42.517Z,96675.00
2022-11-06T17:54:10.666Z,96697.00
2022-11-06T17:56:38.417Z,96699.00
2022-11-06T17:59:05.307Z,96700.00
2022-11-06T18:01:32.317Z,96689.00
2022-11-06T18:03:59.201Z,96706.00
2022-11-06T18:06:26.057Z,96707.00
2022-11-06T18:08:57.365Z,96709.00
2022-11-06T18:11:24.155Z,96714.00
2022-11-06T18:13:51.230Z,96722.00
2022-11-06T18:16:22.344Z,96721.00
2022-11-06T18:18:50.029Z,96715.00
2022-11-06T18:21:17.418Z,96695.00
2022-11-06T18:23:44.254Z,96709.00
2022-11-06T18:26:10.997Z,96706.00
2022-11-06T18:28:37.742Z,96710.00
2022-11-06T18:31:04.463Z,96726.00
2022-11-06T18:33:31.523Z,96745.00
2022-11-06T18:36:03.580Z,96748.00
2022-11-06T18:38:30.770Z,96754.00
2022-11-06T18:40:57.743Z,96754.00
2022-11-06T18:43:24.923Z,96750.00
2022-11-06T18:45:52.011Z,96749.00
2022-11-06T18:48:21.693Z,96749.00
2022-11-06T18:50:48.844Z,96751.00
2022-11-06T18:53:15.715Z,96758.00
2022-11-06T18:55:46.106Z,96756.00
2022-11-06T18:58:13.423Z,96756.00
2022-11-06T19:00:40.440Z,96777.00
2022-11-06T19:03:07.272Z,96765.00
2022-11-06T19:05:34.255Z,96776.00
2022-11-06T19:08:02.678Z,96775.00
2022-11-06T19:10:31.142Z,96776.00
2022-11-06T19:12:59.566Z,96773.00
2022-11-06T19:15:26.618Z,96775.00
2022-11-06T19:17:54.735Z,96777.00
2022-11-06T19:20:22.180Z,96766.00
2022-11-06T19:22:53.408Z,96768.00
2022-11-06T19:25:20.948Z,96769.00
2022-11-06T19:27:48.109Z,96775.00
2022-11-06T19:30:15.756Z,96767.00
2022-11-06T19:32:42.693Z,96782.00
2022-11-06T19:35:09.826Z,96780.00
2022-11-06T19:37:38.286Z,96776.00
2022-11-06T19:40:06.567Z,96785.00
2022-11-06T19:42:33.984Z,96772.00
2022-11-06T19:45:01.396Z,96765.00
2022-11-06T19:47:28.250Z,96763.00
2022-11-06T19:49:54.981Z,96765.00
2022-11-06T19:52:42.973Z,96765.00
2022-11-06T19:55:25.866Z,96760.00
2022-11-06T19:57:57.716Z,96761.00
2022-11-06T20:00:24.600Z,96748.00
2022-11-06T20:02:51.408Z,96757.00
2022-11-06T20:05:19.555Z,96744.00
2022-11-06T20:07:46.435Z,96757.00
2022-11-06T20:10:13.347Z,96759.00
2022-11-06T20:12:40.155Z,96757.00
2022-11-06T20:15:07.562Z,96772.00
2022-11-06T20:17:34.503Z,96759.00
2022-11-06T20:20:01.271Z,96773.00
2022-11-06T20:22:28.123Z,96772.00
2022-11-06T20:24:55.206Z,96781.00
2022-11-06T20:27:22.134Z,96776.00
2022-11-06T20:29:48.872Z,96774.00
2022-11-06T20:32:18.997Z,96782.00
2022-11-06T20:34:47.588Z,96781.00
2022-11-06T20:37:14.428Z,96785.00
2022-11-06T20:39:41.725Z,96779.00
2022-11-06T20:42:09.029Z,96780.00
2022-11-06T20:44:35.873Z,96784.00
2022-11-06T20:47:03.377Z,96786.00
2022-11-06T20:49:30.243Z,96779.00
2022-11-06T20:52:13.984Z,96779.00
2022-11-06T20:54:46.950Z,96789.00
2022-11-06T20:57:18.123Z,96798.00
2022-11-06T20:59:45.257Z,96795.00
2022-11-06T21:02:12.197Z,96793.00
2022-11-06T21:04:39.239Z,96795.00
2022-11-06T21:07:06.232Z,96808.00
2022-11-06T21:09:33.290Z,96808.00
2022-11-06T21:12:00.287Z,96814.00
2022-11-06T21:14:27.750Z,96812.00
2022-11-06T21:16:56.430Z,96811.00
2022-11-06T21:19:23.858Z,96825.00
2022-11-06T21:21:51.098Z,96833.00
2022-11-06T21:24:18.040Z,96840.00
2022-11-06T21:26:44.796Z,96842.00
2022-11-06T21:29:11.742Z,96846.00
2022-11-06T21:31:44.013Z,96844.00
2022-11-06T21:34:15.995Z,96855.00
2022-11-06T21:36:43.138Z,96852.00
2022-11-06T21:39:16.867Z,96842.00
2022-11-06T21:41:43.647Z,96856.00
2022-11-06T21:44:15.672Z,96870.00
2022-11-06T21:46:45.674Z,96862.00
2022-11-06T21:49:13.767Z,96856.00
2022-11-06T21:51:41.048Z,96864.00
2022-11-06T21:54:29.131Z,96868.00
2022-11-06T21:56:55.867Z,96875.00
2022-11-06T21:59:26.459Z,96857.00
2022-11-06T22:01:53.579Z,96870.00
2022-11-06T22:04:20.636Z,96869.00
2022-11-06T22:06:47.374Z,96878.00
2022-11-06T22:09:15.017Z,96884.00
2022-11-06T22:11:44.066Z,96883.00
2022-11-06T22:14:15.104Z,96890.00
2022-11-06T22:16:45.335Z,96889.00
2022-11-06T22:19:13.511Z,96893.00
2022-11-06T22:21:41.051Z,96889.00
2022-11-06T22:24:10.908Z,96899.00
2022-11-06T22:26:37.829Z,96900.00
2022-11-06T22:29:34.478Z,96905.00
2022-11-06T22:32:17.258Z,96900.00
2022-11-06T22:34:43.995Z,96887.00
2022-11-06T22:37:40.846Z,96899.00
2022-11-06T22:40:42.853Z,96891.00
2022-11-06T22:43:42.263Z,96907.00
2022-11-06T22:46:19.018Z,96905.00
2022-11-06T22:48:46.158Z,96900.00
2022-11-06T22:51:23.065Z,96905.00
2022-11-06T22:53:50.507Z,96905.00
2022-11-06T22:56:18.238Z,96905.00
2022-11-06T22:58:45.551Z,96921.00
2022-11-06T23:01:13.226Z,96908.00
2022-11-06T23:03:40.749Z,96906.00
2022-11-06T23:06:09.767Z,96913.00
2022-11-06T23:08:44.171Z,96913.00
2022-11-06T23:11:17.040Z,96903.00
2022-11-06T23:13:44.805Z,96903.00
2022-11-06T23:16:39.763Z,96900.00
2022-11-06T23:19:07.251Z,96895.00
2022-11-06T23:21:34.004Z,96900.00
2022-11-06T23:24:00.903Z,96891.00
2022-11-06T23:26:27.648Z,96906.00
2022-11-06T23:28:55.849Z,96907.00
2022-11-06T23:31:23.566Z,96899.00
2022-11-06T23:33:50.448Z,96884.00
2022-11-06T23:36:17.983Z,96905.00
2022-11-06T23:38:45.134Z,96910.00
2022-11-06T23:41:34.568Z,96904.00
2022-11-06T23:44:02.935Z,96897.00
2022-11-06T23:46:32.614Z,96909.00
2022-11-06T23:49:00.082Z,96904.00
2022-11-06T23:51:27.696Z,96907.00
2022-11-06T23:53:54.821Z,96898.00
2022-11-06T23:56:21.605Z,96905.00
2022-11-06T23:58:48.352Z,96914.00
